Time;durP1;ratioP1;P1;durP2;ratioP2;P2;SDS_P1;SDS_P2;PMS_P1;PMS_P2;Temp;Humidity;BMP_temperature;BMP_pressure;BME280_temperature;BME280_humidity;BME280_pressure;Samples;Min_cycle;Max_cycle;Signal;HPM_P1;HPM_P2
2022/09/08 00:00:30;;;;;;;2.78;1.40;;;21.40;61.00;;;;;;6212525;23;20004;-66
2022/09/08 00:02:55;;;;;;;1.92;1.20;;;21.30;60.90;;;;;;6212525;23;20000;-66
2022/09/08 00:05:24;;;;;;;3.15;1.60;;;21.40;60.90;;;;;;6212320;23;20002;-66
2022/09/08 00:07:53;;;;;;;2.28;1.27;;;21.40;60.90;;;;;;6212749;23;20001;-66
2022/09/08 00:10:19;;;;;;;5.20;1.63;;;21.50;60.80;;;;;;6212925;23;20008;-67
2022/09/08 00:12:46;;;;;;;2.83;1.33;;;21.50;60.70;;;;;;6212307;23;20326;-67
2022/09/08 00:15:12;;;;;;;7.32;3.38;;;21.50;60.50;;;;;;6212437;23;20434;-65
2022/09/08 00:17:38;;;;;;;3.55;2.10;;;21.50;60.50;;;;;;6212525;23;20055;-66
2022/09/08 00:20:05;;;;;;;4.05;1.65;;;21.50;60.50;;;;;;6213022;23;20031;-65
2022/09/08 00:22:31;;;;;;;2.97;1.60;;;21.60;60.60;;;;;;6212446;23;20007;-66
2022/09/08 00:24:57;;;;;;;3.20;1.45;;;21.60;60.60;;;;;;6212454;23;20386;-66
2022/09/08 00:27:22;;;;;;;2.88;1.50;;;21.60;60.60;;;;;;6212161;23;20032;-65
2022/09/08 00:29:48;;;;;;;3.22;1.50;;;21.60;60.90;;;;;;6211954;23;20135;-66
2022/09/08 00:32:13;;;;;;;1.58;1.35;;;21.50;61.10;;;;;;6212555;23;20185;-65
2022/09/08 00:34:39;;;;;;;3.92;1.70;;;21.50;61.30;;;;;;6212168;23;20072;-65
2022/09/08 00:37:05;;;;;;;1.98;1.40;;;21.50;61.70;;;;;;6212272;23;20084;-65
2022/09/08 00:39:30;;;;;;;3.45;1.80;;;21.40;62.10;;;;;;6212486;23;20004;-65
2022/09/08 00:41:56;;;;;;;3.40;1.50;;;21.30;62.30;;;;;;6211920;23;20001;-66
2022/09/08 00:44:40;;;;;;;2.78;1.77;;;21.30;62.60;;;;;;6212129;23;20071;-66
2022/09/08 00:47:18;;;;;;;2.75;1.55;;;21.30;63.10;;;;;;6211921;23;20005;-66
2022/09/08 00:49:47;;;;;;;4.05;1.65;;;21.20;63.70;;;;;;6212341;23;20032;-66
2022/09/08 00:52:13;;;;;;;3.17;1.63;;;21.10;64.10;;;;;;6211116;23;20005;-66
2022/09/08 00:54:38;;;;;;;4.30;1.90;;;21.10;64.40;;;;;;6211024;23;20008;-67
2022/09/08 00:57:05;;;;;;;3.70;1.67;;;21.00;65.10;;;;;;6211286;23;20410;-66
2022/09/08 00:59:36;;;;;;;4.10;1.80;;;21.00;65.50;;;;;;6211034;23;20011;-67
2022/09/08 01:02:19;;;;;;;3.43;1.43;;;21.00;65.70;;;;;;6211108;23;20007;-67
2022/09/08 01:04:44;;;;;;;4.70;1.50;;;20.90;65.80;;;;;;6209157;23;20001;-68
2022/09/08 01:13:12;;;;;;;2.70;1.40;;;20.90;66.80;;;;;;6210663;23;20075;-67
2022/09/08 01:15:39;;;;;;;2.55;1.38;;;20.80;67.00;;;;;;6210560;23;20009;-68
2022/09/08 01:18:05;;;;;;;1.33;0.95;;;20.70;67.30;;;;;;6210639;23;20005;-68
2022/09/08 01:20:48;;;;;;;2.65;1.25;;;20.70;67.30;;;;;;6209199;23;20023;-68
2022/09/08 01:23:39;;;;;;;3.38;1.67;;;20.60;68.00;;;;;;6211464;23;20088;-67
2022/09/08 01:26:34;;;;;;;4.18;2.13;;;20.50;69.30;;;;;;6210662;23;20040;-68
2022/09/08 01:29:02;;;;;;;2.08;1.67;;;20.30;70.00;;;;;;6210943;23;20352;-67
2022/09/08 01:31:31;;;;;;;3.05;1.60;;;20.30;70.10;;;;;;6209882;23;20035;-68
2022/09/08 01:33:59;;;;;;;2.90;1.50;;;20.30;71.10;;;;;;6210255;23;20000;-68
2022/09/08 01:36:25;;;;;;;3.05;1.50;;;20.30;70.40;;;;;;6209601;23;20039;-68
2022/09/08 01:38:50;;;;;;;4.25;1.55;;;20.30;70.30;;;;;;6210164;23;20007;-68
2022/09/08 01:41:16;;;;;;;2.67;1.60;;;20.40;70.20;;;;;;6211761;23;20032;-67
2022/09/08 01:43:41;;;;;;;2.95;1.40;;;20.40;70.20;;;;;;6211175;23;20007;-68
2022/09/08 01:46:07;;;;;;;2.75;1.40;;;20.50;70.20;;;;;;6210107;23;20075;-67
2022/09/08 01:48:33;;;;;;;3.03;1.38;;;20.50;70.30;;;;;;6210203;23;20032;-68
2022/09/08 01:51:05;;;;;;;3.40;1.45;;;20.50;70.20;;;;;;6210091;23;20058;-66
2022/09/08 01:53:31;;;;;;;2.58;1.40;;;20.50;70.30;;;;;;6210484;23;20397;-66
2022/09/08 01:55:57;;;;;;;1.90;1.20;;;20.60;70.30;;;;;;6209946;23;20031;-66
2022/09/08 01:58:23;;;;;;;3.50;1.20;;;20.50;70.30;;;;;;6210208;23;20029;-67
2022/09/08 02:00:49;;;;;;;4.53;1.83;;;20.50;70.60;;;;;;6210136;23;20519;-66
2022/09/08 02:03:15;;;;;;;2.70;1.42;;;20.40;72.50;;;;;;6210088;23;20001;-66
2022/09/08 02:05:41;;;;;;;3.22;1.50;;;20.20;72.10;;;;;;6210569;23;20067;-67
2022/09/08 02:08:08;;;;;;;4.07;1.85;;;20.20;72.20;;;;;;6210204;23;20001;-67
2022/09/08 02:10:34;;;;;;;3.55;1.83;;;20.20;72.50;;;;;;6211702;23;20004;-67
2022/09/08 02:13:01;;;;;;;3.60;1.60;;;20.10;72.70;;;;;;6211369;23;20008;-65
2022/09/08 02:15:27;;;;;;;3.53;1.42;;;20.00;73.10;;;;;;6211740;23;20433;-66
2022/09/08 02:17:52;;;;;;;2.28;1.20;;;19.90;73.50;;;;;;6209995;23;20083;-66
2022/09/08 02:20:18;;;;;;;2.40;1.40;;;19.90;73.70;;;;;;6210120;23;20434;-67
2022/09/08 02:22:44;;;;;;;2.78;1.40;;;19.80;73.90;;;;;;6210459;23;20015;-66
2022/09/08 02:25:09;;;;;;;2.67;1.40;;;19.80;74.00;;;;;;6210112;23;20001;-68
2022/09/08 02:27:35;;;;;;;2.85;1.48;;;19.80;74.00;;;;;;6209752;23;20011;-68
2022/09/08 02:30:00;;;;;;;2.45;1.65;;;19.70;74.00;;;;;;6210437;23;20032;-67
2022/09/08 02:32:26;;;;;;;4.80;1.80;;;19.80;74.10;;;;;;6210508;23;20385;-67
2022/09/08 02:34:52;;;;;;;3.22;1.50;;;19.70;74.30;;;;;;6210839;23;20004;-67
2022/09/08 02:37:18;;;;;;;4.07;1.48;;;19.70;74.30;;;;;;6209996;23;20001;-67
2022/09/08 02:39:44;;;;;;;4.32;1.48;;;19.70;74.10;;;;;;6210437;23;20008;-67
2022/09/08 02:42:11;;;;;;;3.55;1.50;;;19.80;74.00;;;;;;6210872;23;20126;-65
2022/09/08 02:44:38;;;;;;;3.15;1.42;;;19.70;74.00;;;;;;6211211;23;20335;-66
2022/09/08 02:47:03;;;;;;;3.45;1.60;;;19.70;74.00;;;;;;6210590;23;20059;-66
2022/09/08 02:49:31;;;;;;;3.25;1.60;;;19.70;74.10;;;;;;6208664;23;20008;-66
2022/09/08 02:51:57;;;;;;;3.05;1.50;;;19.70;74.30;;;;;;6208485;23;20393;-66
2022/09/08 02:54:23;;;;;;;2.95;1.60;;;19.60;74.20;;;;;;6210448;23;20032;-67
2022/09/08 02:56:48;;;;;;;2.75;1.70;;;19.60;74.20;;;;;;6210405;23;20464;-66
2022/09/08 02:59:14;;;;;;;2.30;1.70;;;19.60;74.40;;;;;;6210882;23;20005;-66
2022/09/08 03:01:40;;;;;;;2.67;1.80;;;19.60;74.50;;;;;;6211021;23;20473;-66
2022/09/08 03:04:06;;;;;;;2.38;1.52;;;19.60;74.60;;;;;;6210700;23;20139;-65
2022/09/08 03:06:31;;;;;;;3.35;1.83;;;19.50;74.40;;;;;;6210093;23;20001;-66
2022/09/08 03:08:57;;;;;;;3.00;1.65;;;19.50;74.60;;;;;;6210187;23;20009;-67
2022/09/08 03:11:23;;;;;;;3.50;1.85;;;19.50;74.70;;;;;;6210230;23;20039;-68
2022/09/08 03:13:48;;;;;;;3.25;2.10;;;19.50;74.90;;;;;;6209846;23;20008;-68
2022/09/08 03:16:14;;;;;;;4.93;2.05;;;19.40;75.10;;;;;;6210594;23;20001;-66
2022/09/08 03:18:40;;;;;;;4.50;1.88;;;19.30;75.30;;;;;;6210280;23;20012;-66
2022/09/08 03:21:10;;;;;;;3.08;1.75;;;19.30;75.60;;;;;;6210234;23;20329;-67
2022/09/08 03:23:35;;;;;;;3.58;1.70;;;19.30;75.70;;;;;;6210065;23;20005;-68
2022/09/08 03:26:04;;;;;;;2.28;1.70;;;19.20;75.80;;;;;;6210112;23;20378;-66
2022/09/08 03:28:29;;;;;;;3.72;1.90;;;19.20;75.80;;;;;;6209761;23;20013;-68
2022/09/08 03:30:55;;;;;;;3.92;1.77;;;19.20;75.70;;;;;;6209786;23;20010;-67
2022/09/08 03:33:21;;;;;;;3.72;1.90;;;19.20;75.70;;;;;;6210100;23;20009;-67
2022/09/08 03:35:47;;;;;;;3.28;1.85;;;19.20;75.80;;;;;;6209897;23;20005;-67
2022/09/08 03:38:13;;;;;;;3.58;1.80;;;19.20;75.80;;;;;;6209816;23;20012;-67
2022/09/08 03:40:41;;;;;;;2.92;1.80;;;19.30;75.90;;;;;;6211219;23;20433;-66
2022/09/08 03:43:08;;;;;;;4.07;1.92;;;19.30;75.90;;;;;;6210597;23;20000;-66
2022/09/08 03:45:33;;;;;;;2.55;1.60;;;19.30;75.90;;;;;;6210233;23;20004;-67
2022/09/08 03:47:59;;;;;;;3.13;1.70;;;19.30;75.80;;;;;;6209776;23;20005;-68
2022/09/08 03:50:25;;;;;;;2.45;1.80;;;19.30;76.00;;;;;;6209759;23;20025;-67
2022/09/08 03:52:50;;;;;;;3.22;2.05;;;19.30;76.00;;;;;;6209420;23;19997;-67
2022/09/08 03:55:17;;;;;;;4.35;1.80;;;19.30;76.00;;;;;;6209968;23;19997;-66
2022/09/08 03:57:43;;;;;;;3.03;1.63;;;19.30;75.90;;;;;;6209948;23;20000;-67
2022/09/08 04:00:11;;;;;;;3.10;1.85;;;19.30;75.90;;;;;;6209733;23;20346;-66
2022/09/08 04:02:37;;;;;;;2.88;1.70;;;19.30;75.90;;;;;;6211207;23;20472;-67
2022/09/08 04:05:03;;;;;;;3.60;1.90;;;19.30;75.90;;;;;;6211452;23;19997;-66
2022/09/08 04:07:30;;;;;;;3.70;1.80;;;19.40;76.00;;;;;;6211578;23;20004;-67
2022/09/08 04:09:56;;;;;;;3.00;1.70;;;19.40;75.90;;;;;;6211364;23;20001;-68
2022/09/08 04:12:24;;;;;;;6.18;2.35;;;19.40;75.80;;;;;;6212306;23;20005;-69
2022/09/08 04:14:50;;;;;;;4.18;2.25;;;19.40;76.10;;;;;;6213203;23;20452;-67
2022/09/08 04:17:17;;;;;;;3.83;2.08;;;19.30;76.70;;;;;;6212037;23;20008;-67
2022/09/08 04:19:43;;;;;;;3.13;1.52;;;19.30;76.80;;;;;;6211638;23;20580;-67
2022/09/08 04:22:10;;;;;;;3.80;1.60;;;19.30;76.70;;;;;;6211685;23;20119;-66
2022/09/08 04:24:36;;;;;;;3.38;1.38;;;19.30;76.60;;;;;;6211605;23;20379;-68
2022/09/08 04:27:02;;;;;;;2.60;1.45;;;19.30;76.50;;;;;;6209718;23;20009;-68
2022/09/08 04:29:27;;;;;;;2.35;1.50;;;19.30;76.60;;;;;;6212836;23;20083;-66
2022/09/08 04:31:53;;;;;;;3.45;1.58;;;19.30;76.60;;;;;;6210948;23;20063;-68
2022/09/08 04:34:18;;;;;;;2.30;1.35;;;19.30;76.70;;;;;;6212455;23;20008;-67
2022/09/08 04:36:45;;;;;;;2.70;1.55;;;19.30;76.70;;;;;;6211356;23;20011;-66
2022/09/08 04:39:11;;;;;;;2.13;1.40;;;19.30;76.60;;;;;;6211828;23;20504;-67
2022/09/08 04:41:38;;;;;;;2.88;1.35;;;19.30;76.60;;;;;;6212170;23;20086;-67
2022/09/08 04:44:04;;;;;;;2.15;1.17;;;19.30;76.60;;;;;;6212418;23;20000;-67
2022/09/08 04:46:31;;;;;;;1.75;1.10;;;19.30;76.60;;;;;;6210839;23;20071;-68
2022/09/08 04:48:57;;;;;;;4.03;1.40;;;19.20;76.60;;;;;;6211349;23;20004;-68
2022/09/08 04:51:24;;;;;;;2.97;1.20;;;19.20;76.70;;;;;;6211257;23;20010;-68
2022/09/08 04:53:55;;;;;;;3.03;1.50;;;19.10;76.70;;;;;;6211732;23;20041;-68
2022/09/08 04:56:22;;;;;;;3.05;1.58;;;19.10;77.00;;;;;;6211264;23;20012;-66
2022/09/08 04:58:48;;;;;;;3.65;1.42;;;19.00;77.20;;;;;;6211792;23;20012;-69
2022/09/08 05:01:18;;;;;;;3.55;1.70;;;19.00;77.30;;;;;;6211381;23;20433;-72
2022/09/08 05:03:44;;;;;;;3.17;1.45;;;19.00;77.40;;;;;;6210838;23;20004;-68
2022/09/08 05:06:15;;;;;;;3.30;1.70;;;18.90;77.50;;;;;;6211042;23;20076;-68
2022/09/08 05:08:46;;;;;;;4.13;1.92;;;18.90;77.50;;;;;;6211248;23;20000;-69
2022/09/08 05:11:12;;;;;;;5.35;2.17;;;18.90;78.10;;;;;;6211063;23;20341;-66
2022/09/08 05:13:38;;;;;;;4.15;2.10;;;18.80;78.20;;;;;;6210746;23;20009;-67
2022/09/08 05:16:06;;;;;;;3.25;1.98;;;18.80;78.40;;;;;;6211660;23;20016;-67
2022/09/08 05:18:33;;;;;;;3.22;1.98;;;18.80;78.50;;;;;;6210861;23;20027;-67
2022/09/08 05:20:58;;;;;;;4.15;2.15;;;18.80;78.30;;;;;;6209735;23;20004;-68
2022/09/08 05:23:24;;;;;;;5.00;2.00;;;18.80;78.50;;;;;;6210446;23;20057;-68
2022/09/08 05:26:04;;;;;;;4.85;2.90;;;18.80;78.60;;;;;;6209592;23;20004;-68
2022/09/08 05:28:31;;;;;;;3.88;2.40;;;18.70;79.10;;;;;;6210190;23;20016;-68
2022/09/08 05:30:57;;;;;;;3.28;2.25;;;18.60;79.30;;;;;;6209068;23;20059;-66
2022/09/08 05:33:23;;;;;;;3.97;2.22;;;18.60;79.10;;;;;;6209778;23;20005;-66
2022/09/08 05:35:49;;;;;;;3.97;1.95;;;18.70;79.10;;;;;;6210307;23;20001;-68
2022/09/08 05:38:15;;;;;;;3.25;2.35;;;18.80;78.90;;;;;;6209683;23;20413;-68
2022/09/08 05:40:41;;;;;;;2.80;2.00;;;18.70;79.00;;;;;;6209253;23;20126;-67
2022/09/08 05:43:07;;;;;;;2.28;1.90;;;18.70;78.90;;;;;;6209451;23;20005;-67
2022/09/08 05:45:33;;;;;;;2.60;2.03;;;18.80;78.70;;;;;;6209328;23;20032;-68
2022/09/08 05:47:58;;;;;;;3.05;2.13;;;18.80;78.70;;;;;;6209309;23;20074;-66
2022/09/08 05:50:24;;;;;;;3.00;2.08;;;18.80;78.70;;;;;;6209511;23;20009;-67
2022/09/08 05:52:49;;;;;;;4.28;2.03;;;18.80;78.70;;;;;;6209434;23;20329;-68
2022/09/08 05:55:16;;;;;;;3.33;2.20;;;18.80;78.70;;;;;;6208793;23;20005;-67
2022/09/08 05:57:41;;;;;;;3.90;2.15;;;18.80;78.80;;;;;;6209504;23;20008;-68
2022/09/08 06:00:08;;;;;;;2.78;2.00;;;18.80;78.90;;;;;;6209504;23;20035;-68
2022/09/08 06:02:34;;;;;;;2.83;1.95;;;18.70;79.00;;;;;;6210043;23;20004;-68
2022/09/08 06:05:00;;;;;;;3.47;2.33;;;18.70;79.10;;;;;;6210244;23;20485;-67
2022/09/08 06:07:25;;;;;;;3.00;2.65;;;18.60;79.30;;;;;;6207817;23;20082;-68
2022/09/08 06:09:52;;;;;;;2.28;1.85;;;18.60;79.40;;;;;;6210527;23;20011;-68
2022/09/08 06:12:17;;;;;;;3.22;2.28;;;18.60;79.40;;;;;;6210100;23;20011;-67
2022/09/08 06:14:43;;;;;;;3.13;2.42;;;18.60;79.50;;;;;;6210205;23;20088;-66
2022/09/08 06:17:09;;;;;;;2.80;2.05;;;18.60;79.70;;;;;;6209806;23;20389;-67
2022/09/08 06:19:35;;;;;;;3.05;2.33;;;18.60;79.60;;;;;;6210248;23;20083;-65
2022/09/08 06:22:01;;;;;;;3.08;2.30;;;18.60;79.60;;;;;;6210522;23;20032;-67
2022/09/08 06:24:26;;;;;;;3.40;2.28;;;18.60;79.50;;;;;;6210367;23;20098;-67
2022/09/08 06:27:04;;;;;;;4.15;3.00;;;18.60;79.60;;;;;;6207724;23;20011;-67
2022/09/08 06:30:11;;;;;;;3.40;2.80;;;18.60;79.70;;;;;;6211415;23;20370;-67
2022/09/08 06:32:39;;;;;;;4.88;3.38;;;18.60;79.80;;;;;;6210551;23;20005;-67
2022/09/08 06:35:36;;;;;;;4.20;2.85;;;18.50;80.00;;;;;;6209674;23;20008;-67
2022/09/08 06:38:04;;;;;;;5.30;3.80;;;18.50;80.10;;;;;;6209715;23;20008;-67
2022/09/08 06:40:43;;;;;;;6.25;4.40;;;18.50;80.30;;;;;;6212049;23;19996;-67
2022/09/08 06:43:27;;;;;;;4.40;2.80;;;18.40;80.80;;;;;;6211476;23;20024;-67
2022/09/08 06:45:55;;;;;;;5.57;2.95;;;18.40;80.70;;;;;;6211489;23;20005;-67
2022/09/08 06:48:31;;;;;;;5.10;2.90;;;18.50;80.50;;;;;;6211131;23;20080;-67
2022/09/08 06:51:21;;;;;;;4.60;2.80;;;18.50;80.50;;;;;;6211350;23;20040;-68
2022/09/08 06:53:55;;;;;;;3.80;2.92;;;18.50;80.50;;;;;;6210821;23;20061;-68
2022/09/08 06:56:43;;;;;;;6.63;3.20;;;18.40;80.80;;;;;;6211037;23;20027;-68
2022/09/08 06:59:25;;;;;;;4.57;2.67;;;18.50;81.00;;;;;;6210831;23;20091;-68
2022/09/08 07:02:24;;;;;;;4.07;2.88;;;18.40;81.00;;;;;;6211113;23;20510;-67
2022/09/08 07:05:19;;;;;;;5.03;3.70;;;18.40;81.10;;;;;;6160312;23;20005;-68
2022/09/08 07:08:00;;;;;;;5.18;3.30;;;18.40;81.70;;;;;;6211596;23;20016;-68
2022/09/08 07:10:31;;;;;;;3.47;2.60;;;18.40;81.80;;;;;;6211278;23;20011;-68
2022/09/08 07:13:01;;;;;;;7.43;4.30;;;18.40;81.60;;;;;;6211591;23;20008;-67
2022/09/08 07:16:15;;;;;;;4.40;3.00;;;18.30;82.10;;;;;;6211405;23;20131;-67
2022/09/08 07:18:49;;;;;;;4.68;3.08;;;18.30;82.20;;;;;;6119322;23;20390;-67
2022/09/08 07:21:41;;;;;;;5.82;4.13;;;18.30;82.10;;;;;;6197524;23;20422;-68
2022/09/08 07:24:12;;;;;;;5.20;3.95;;;18.30;82.30;;;;;;6212007;23;20001;-67
2022/09/08 07:26:52;;;;;;;4.65;3.10;;;18.20;82.50;;;;;;6211397;23;20055;-68
2022/09/08 07:29:23;;;;;;;3.88;2.60;;;18.30;82.50;;;;;;6211422;23;20426;-67
2022/09/08 07:31:51;;;;;;;4.32;2.90;;;18.30;82.20;;;;;;6211100;23;20001;-68
2022/09/08 07:34:21;;;;;;;4.03;3.30;;;18.30;82.30;;;;;;6211638;23;20001;-68
2022/09/08 07:37:14;;;;;;;4.15;3.10;;;18.40;82.40;;;;;;6212573;23;20005;-68
2022/09/08 07:39:42;;;;;;;5.30;2.90;;;18.40;82.30;;;;;;6213524;23;20368;-68
2022/09/08 07:42:15;;;;;;;4.97;3.13;;;18.50;82.10;;;;;;6213551;23;20426;-68
2022/09/08 07:44:41;;;;;;;4.38;3.13;;;18.50;82.00;;;;;;6213263;23;20024;-66
2022/09/08 07:47:35;;;;;;;3.60;3.00;;;18.50;82.00;;;;;;6213527;23;20004;-67
2022/09/08 07:50:21;;;;;;;4.35;3.00;;;18.50;82.10;;;;;;6213346;23;20004;-67
2022/09/08 07:53:11;;;;;;;4.65;4.00;;;18.40;82.20;;;;;;6212994;23;20075;-67
2022/09/08 07:55:42;;;;;;;3.30;3.00;;;18.40;82.40;;;;;;6213029;23;20035;-67
2022/09/08 07:58:15;;;;;;;4.77;3.20;;;18.40;82.40;;;;;;6212674;23;20686;-67
2022/09/08 08:00:49;;;;;;;4.47;3.05;;;18.50;82.30;;;;;;6212594;23;20569;-66
2022/09/08 08:03:23;;;;;;;3.20;2.35;;;18.50;82.50;;;;;;6212529;23;19997;-66
2022/09/08 08:05:54;;;;;;;3.90;3.50;;;18.40;82.40;;;;;;6208884;23;20004;-68
2022/09/08 08:08:40;;;;;;;4.88;3.08;;;18.50;82.70;;;;;;6212112;23;20565;-69
2022/09/08 08:11:13;;;;;;;3.92;2.88;;;18.40;82.60;;;;;;6212320;23;20055;-68
2022/09/08 08:13:44;;;;;;;3.70;2.30;;;18.40;82.70;;;;;;6211737;23;20005;-67
2022/09/08 08:16:13;;;;;;;4.43;3.40;;;18.50;82.40;;;;;;6212251;23;20005;-68
2022/09/08 08:18:54;;;;;;;3.78;3.03;;;18.50;82.30;;;;;;6212764;23;20031;-68
2022/09/08 08:21:31;;;;;;;3.10;2.75;;;18.60;82.40;;;;;;6212476;23;20028;-68
2022/09/08 08:24:04;;;;;;;3.17;2.65;;;18.50;82.20;;;;;;6212474;23;20004;-68
2022/09/08 08:26:34;;;;;;;5.30;3.80;;;18.70;82.00;;;;;;6212336;23;20030;-67
2022/09/08 08:29:18;;;;;;;4.95;3.80;;;18.70;82.00;;;;;;6212562;23;20015;-68
2022/09/08 08:32:08;;;;;;;6.10;3.88;;;18.70;82.20;;;;;;6212272;23;20008;-68
2022/09/08 08:34:40;;;;;;;4.72;3.72;;;18.60;82.30;;;;;;6212744;23;20011;-66
2022/09/08 08:37:08;;;;;;;4.13;3.10;;;18.70;82.20;;;;;;6212251;23;20126;-67
2022/09/08 08:39:36;;;;;;;4.15;3.05;;;18.80;82.10;;;;;;6212216;23;20055;-68
2022/09/08 08:42:18;;;;;;;3.78;2.83;;;18.80;82.00;;;;;;6212250;23;20075;-68
2022/09/08 08:44:49;;;;;;;4.53;3.25;;;18.90;81.70;;;;;;6212441;23;20009;-67
2022/09/08 08:47:38;;;;;;;3.75;2.80;;;19.00;81.50;;;;;;6211671;23;20012;-66
2022/09/08 08:50:22;;;;;;;4.03;2.75;;;19.10;81.40;;;;;;6212429;23;20635;-68
2022/09/08 08:53:35;;;;;;;3.13;2.70;;;19.10;81.30;;;;;;6211874;23;20005;-67
2022/09/08 08:56:37;;;;;;;4.05;2.60;;;19.30;81.10;;;;;;6212083;23;20449;-68
2022/09/08 08:59:05;;;;;;;2.80;2.40;;;19.40;80.90;;;;;;6134608;23;20009;-68
2022/09/08 09:02:09;;;;;;;3.15;2.50;;;19.50;80.40;;;;;;6210832;23;20001;-68
2022/09/08 09:05:08;;;;;;;3.63;2.42;;;19.80;80.10;;;;;;6211226;23;20472;-68
2022/09/08 09:08:18;;;;;;;5.00;3.67;;;19.90;79.70;;;;;;6211961;23;20585;-67
2022/09/08 09:10:47;;;;;;;4.38;2.80;;;19.90;79.10;;;;;;6211998;23;20074;-69
2022/09/08 09:13:24;;;;;;;4.80;3.00;;;19.90;79.10;;;;;;6212156;23;20007;-67
2022/09/08 09:16:11;;;;;;;4.07;3.15;;;19.90;79.10;;;;;;6210210;23;20100;-68
2022/09/08 09:18:55;;;;;;;3.17;2.42;;;19.80;79.30;;;;;;6211853;23;20000;-67
2022/09/08 09:21:52;;;;;;;3.50;2.70;;;20.00;79.10;;;;;;6211832;23;20012;-67
2022/09/08 09:24:20;;;;;;;3.42;2.75;;;20.20;78.80;;;;;;6211509;23;20007;-68
2022/09/08 09:26:49;;;;;;;5.65;4.22;;;20.30;78.50;;;;;;6211763;23;20005;-68
2022/09/08 09:29:21;;;;;;;6.88;4.40;;;20.40;77.80;;;;;;6212189;23;20042;-68
2022/09/08 09:32:05;;;;;;;4.18;3.20;;;20.30;77.50;;;;;;6212146;23;20451;-67
2022/09/08 09:34:54;;;;;;;6.75;4.68;;;20.20;77.60;;;;;;6211871;23;20011;-68
2022/09/08 09:37:52;;;;;;;5.85;3.10;;;20.20;77.50;;;;;;6212125;23;20005;-68
2022/09/08 09:40:26;;;;;;;4.75;2.92;;;20.20;77.70;;;;;;6205882;23;20016;-67
2022/09/08 09:43:31;;;;;;;5.57;3.35;;;20.30;77.50;;;;;;6211582;23;20375;-68
2022/09/08 09:46:27;;;;;;;6.15;4.65;;;20.30;77.40;;;;;;6195871;23;20039;-68
2022/09/08 09:49:01;;;;;;;4.20;2.97;;;20.30;77.40;;;;;;6211955;23;20005;-67
2022/09/08 09:51:27;;;;;;;4.47;3.33;;;20.10;77.50;;;;;;6212139;23;19997;-68
2022/09/08 09:54:17;;;;;;;4.93;2.88;;;20.10;77.70;;;;;;6211972;23;20007;-67
2022/09/08 09:57:12;;;;;;;5.40;3.58;;;20.20;77.70;;;;;;6210457;23;20026;-68
2022/09/08 10:00:09;;;;;;;4.00;2.80;;;20.40;77.40;;;;;;6211654;23;20055;-67
2022/09/08 10:03:10;;;;;;;4.78;3.33;;;20.50;77.20;;;;;;6212082;23;20076;-67
2022/09/08 10:06:21;;;;;;;5.93;3.00;;;20.60;76.80;;;;;;6210539;23;19997;-67
2022/09/08 10:09:08;;;;;;;2.13;1.90;;;20.60;76.70;;;;;;6212074;23;20129;-67
2022/09/08 10:12:03;;;;;;;5.05;2.55;;;20.60;76.40;;;;;;6211967;23;20220;-68
2022/09/08 10:15:02;;;;;;;2.63;1.85;;;20.60;76.10;;;;;;6212110;23;20011;-67
2022/09/08 10:18:05;;;;;;;4.85;3.20;;;20.50;75.60;;;;;;6211745;23;20008;-68
2022/09/08 10:20:59;;;;;;;5.15;2.78;;;20.40;74.90;;;;;;6211703;23;20092;-67
2022/09/08 10:23:46;;;;;;;4.32;2.47;;;20.30;75.10;;;;;;6211704;23;20014;-66
2022/09/08 10:26:37;;;;;;;3.13;2.10;;;20.40;75.40;;;;;;6211657;23;20001;-68
2022/09/08 10:29:31;;;;;;;5.13;2.92;;;20.60;75.40;;;;;;6211782;23;20008;-67
2022/09/08 10:32:37;;;;;;;3.75;2.60;;;20.90;75.00;;;;;;6209496;23;20013;-67
2022/09/08 10:35:29;;;;;;;4.40;2.47;;;21.10;74.60;;;;;;6210910;23;20005;-66
2022/09/08 10:37:58;;;;;;;;;;;21.20;74.20;;;;;;6211795;23;20035;-67
2022/09/08 10:41:05;;;;;;;3.97;2.95;;;21.30;73.70;;;;;;6211135;23;19970;-67
2022/09/08 10:44:02;;;;;;;4.47;2.55;;;21.20;73.30;;;;;;6168232;23;20383;-68
2022/09/08 10:46:54;;;;;;;4.15;3.38;;;21.30;73.20;;;;;;6211053;23;20000;-67
2022/09/08 10:49:23;;;;;;;6.00;2.83;;;21.40;72.40;;;;;;6211296;23;20008;-68
2022/09/08 10:52:18;;;;;;;3.75;2.75;;;21.30;72.30;;;;;;6211009;23;20005;-66
2022/09/08 10:55:27;;;;;;;4.18;2.75;;;21.50;72.10;;;;;;6209675;23;20008;-67
2022/09/08 10:58:11;;;;;;;6.55;3.13;;;21.60;71.80;;;;;;6210910;23;20008;-67
2022/09/08 11:01:07;;;;;;;5.50;3.53;;;21.50;71.10;;;;;;6211437;23;20016;-67
2022/09/08 11:03:54;;;;;;;3.40;2.15;;;21.50;70.30;;;;;;6211172;23;20032;-67
2022/09/08 11:06:41;;;;;;;5.80;2.33;;;21.40;70.50;;;;;;6211498;23;20448;-68
2022/09/08 11:09:51;;;;;;;2.78;1.70;;;21.40;70.60;;;;;;6211232;23;20011;-67
2022/09/08 11:12:37;;;;;;;3.05;1.58;;;21.60;70.60;;;;;;6165958;23;20036;-67
2022/09/08 11:15:34;;;;;;;2.10;1.50;;;21.90;70.40;;;;;;6210461;23;20043;-68
2022/09/08 11:18:33;;;;;;;2.80;1.52;;;22.20;70.00;;;;;;6213328;23;20337;-66
2022/09/08 11:21:07;;;;;;;3.13;1.80;;;22.40;69.40;;;;;;6213195;23;20005;-67
2022/09/08 11:24:15;;;;;;;2.88;1.63;;;22.50;68.70;;;;;;6213370;23;20004;-66
2022/09/08 11:26:56;;;;;;;2.63;1.77;;;22.50;68.10;;;;;;6212915;23;20017;-66
2022/09/08 11:29:30;;;;;;;3.15;1.60;;;22.40;66.10;;;;;;6210936;23;20047;-68
2022/09/08 11:32:20;;;;;;;3.40;1.80;;;22.30;66.20;;;;;;6212728;23;20070;-67
2022/09/08 11:34:57;;;;;;;3.20;1.60;;;22.20;66.00;;;;;;6213019;23;20011;-68
2022/09/08 11:37:34;;;;;;;5.25;1.77;;;22.40;66.30;;;;;;6212759;23;20009;-65
2022/09/08 11:40:23;;;;;;;3.92;1.73;;;22.50;65.60;;;;;;6212823;23;20488;-66
2022/09/08 11:43:26;;;;;;;4.97;2.17;;;22.70;64.70;;;;;;6212894;23;20001;-68
2022/09/08 11:46:06;;;;;;;3.45;1.50;;;22.70;63.20;;;;;;6212887;23;20012;-67
2022/09/08 11:48:50;;;;;;;2.70;1.23;;;22.80;63.60;;;;;;6212887;23;20000;-68
2022/09/08 11:51:19;;;;;;;5.35;1.50;;;23.00;61.50;;;;;;6213041;23;20324;-67
2022/09/08 11:53:57;;;;;;;3.65;1.33;;;23.10;60.50;;;;;;6213001;23;20005;-68
2022/09/08 11:56:32;;;;;;;2.38;1.38;;;23.10;60.60;;;;;;6212726;23;20370;-66
2022/09/08 11:59:31;;;;;;;2.53;1.30;;;23.30;60.90;;;;;;6212989;23;20035;-66
2022/09/08 12:01:59;;;;;;;2.95;1.50;;;23.60;61.10;;;;;;6207195;23;20031;-67
2022/09/08 12:04:45;;;;;;;3.25;1.30;;;23.70;59.90;;;;;;6211400;23;20047;-67
2022/09/08 12:07:19;;;;;;;2.55;1.38;;;23.80;59.40;;;;;;6212826;23;20338;-67
2022/09/08 12:10:11;;;;;;;5.18;1.70;;;23.80;58.60;;;;;;6212894;23;20011;-67
2022/09/08 12:12:56;;;;;;;;;;;23.70;57.90;;;;;;6213319;23;20111;-67
2022/09/08 12:15:32;;;;;;;4.60;1.48;;;23.60;58.60;;;;;;6212919;23;19966;-68
2022/09/08 12:18:21;;;;;;;4.20;1.17;;;23.70;58.60;;;;;;6212836;23;20005;-68
2022/09/08 12:21:04;;;;;;;3.45;1.08;;;23.80;58.70;;;;;;6213097;23;20029;-69
2022/09/08 12:23:59;;;;;;;3.78;1.10;;;23.90;59.00;;;;;;6212293;23;20028;-67
2022/09/08 12:26:44;;;;;;;4.97;1.42;;;23.90;58.80;;;;;;6212769;23;20476;-67
2022/09/08 12:29:33;;;;;;;2.25;1.20;;;23.90;58.90;;;;;;6212771;23;20005;-67
2022/09/08 12:32:45;;;;;;;4.32;1.05;;;23.70;59.00;;;;;;6213001;23;20058;-66
2022/09/08 12:35:28;;;;;;;2.88;1.20;;;23.70;59.40;;;;;;6212459;23;20011;-66
2022/09/08 12:37:53;;;;;;;12.02;7.53;;;23.60;58.30;;;;;;6212872;23;20015;-66
2022/09/08 12:40:22;;;;;;;5.43;1.95;;;23.40;58.30;;;;;;6212794;23;20008;-67
2022/09/08 12:42:56;;;;;;;4.35;1.40;;;23.40;58.00;;;;;;6212543;23;19996;-66
2022/09/08 12:45:50;;;;;;;2.40;1.15;;;23.30;58.00;;;;;;6212512;23;20079;-66
2022/09/08 12:48:40;;;;;;;2.70;1.02;;;23.50;58.00;;;;;;6212289;23;20001;-67
2022/09/08 12:51:11;;;;;;;1.73;0.70;;;23.80;57.90;;;;;;6212695;23;20050;-66
2022/09/08 12:53:58;;;;;;;3.08;1.00;;;23.90;57.10;;;;;;6212446;23;19996;-66
2022/09/08 12:56:36;;;;;;;3.83;1.27;;;24.00;56.80;;;;;;6212396;23;20310;-67
2022/09/08 12:59:42;;;;;;;3.60;1.10;;;24.10;56.50;;;;;;6212612;23;20429;-65
2022/09/08 13:02:29;;;;;;;3.20;1.05;;;24.30;56.10;;;;;;6212780;23;20004;-66
2022/09/08 13:05:00;;;;;;;3.60;1.77;;;24.50;56.00;;;;;;6212548;23;20032;-67
2022/09/08 13:07:55;;;;;;;4.55;1.40;;;24.60;55.70;;;;;;6213003;23;20054;-67
2022/09/08 13:10:21;;;;;;;3.47;1.17;;;24.60;53.90;;;;;;6210746;23;20059;-66
2022/09/08 13:13:17;;;;;;;3.72;1.13;;;24.70;54.00;;;;;;6212527;23;20019;-67
2022/09/08 13:15:46;;;;;;;3.92;1.20;;;24.80;53.70;;;;;;6212864;23;20005;-67
2022/09/08 13:18:41;;;;;;;2.03;1.05;;;24.80;52.10;;;;;;6211199;23;20341;-66
2022/09/08 13:21:13;;;;;;;4.72;1.17;;;24.90;52.40;;;;;;6199856;23;20011;-66
2022/09/08 13:23:52;;;;;;;2.65;0.90;;;25.00;52.40;;;;;;6212108;23;20000;-65
2022/09/08 13:26:26;;;;;;;3.17;1.02;;;25.10;52.30;;;;;;6210564;23;20012;-68
2022/09/08 13:29:19;;;;;;;3.45;1.10;;;24.90;51.60;;;;;;6212226;23;20000;-67
2022/09/08 13:32:14;;;;;;;3.13;1.00;;;24.80;51.80;;;;;;6212323;23;20008;-65
2022/09/08 13:34:40;;;;;;;2.22;0.98;;;24.60;52.30;;;;;;6210536;23;20039;-65
2022/09/08 13:37:35;;;;;;;2.13;0.80;;;24.50;53.00;;;;;;6212256;23;20005;-66